Lanesboro, Massachusetts
Current Conditions -  °F | °C
As of 10:02 PM on Thursday 27 Nov 2014 (Local Time) from KPSF Reporting Station
Light Snow Light Snow  
Wind Chill: 17°   Ceiling: 2400
Heat Index: 25°   Visibility: 1.7mi
Dew Point: 23°   Wind: 7mph
Humidity: 92%   Direction: 260°W
Pressure: 29.98"   Gusts: NA
Location:  42.51°N, 73.24°W
Report Text: KPSF 280302Z AUTO 26006KT 1 3/4SM -SN BR OVC024 M04/M05 A2998 RMK AO2 P0000 T10391050
Loading
Personal Weather Stations






























Interactive Weather Map New forecast layout! Learn more

10-Day Weather Forecast

Advertisements
Track Severe Weather on mobile